Time;durP1;ratioP1;P1;durP2;ratioP2;P2;SDS_P1;SDS_P2;PMS_P1;PMS_P2;Temp;Humidity;BMP_temperature;BMP_pressure;BME280_temperature;BME280_humidity;BME280_pressure;Samples;Min_cycle;Max_cycle;Signal;HPM_P1;HPM_P2
2022/07/27 00:01:47;;;;;;;3.65;2.13;;;13.20;99.90;;;;;;5055444;27;20047;-84
2022/07/27 00:04:13;;;;;;;3.95;1.70;;;13.20;99.90;;;;;;5053321;27;20460;-84
2022/07/27 00:06:39;;;;;;;3.70;2.13;;;13.20;99.90;;;;;;5072974;27;20050;-86
2022/07/27 00:09:05;;;;;;;8.85;2.42;;;13.20;99.90;;;;;;5065475;27;20078;-84
2022/07/27 00:11:32;;;;;;;8.10;2.30;;;13.20;99.90;;;;;;5055289;27;20042;-84
2022/07/27 00:13:58;;;;;;;4.38;1.92;;;13.10;99.90;;;;;;5058093;27;20047;-84
2022/07/27 00:16:24;;;;;;;7.57;2.72;;;13.10;99.90;;;;;;5083508;27;20443;-85
2022/07/27 00:18:50;;;;;;;6.70;2.65;;;13.10;99.90;;;;;;5058099;28;20114;-85
2022/07/27 00:21:16;;;;;;;6.15;2.15;;;13.10;99.90;;;;;;5058244;28;20930;-85
2022/07/27 00:23:42;;;;;;;4.80;2.00;;;13.10;99.90;;;;;;5053539;28;20058;-85
2022/07/27 00:26:08;;;;;;;5.75;2.10;;;13.10;99.90;;;;;;5081208;28;20071;-85
2022/07/27 00:28:35;;;;;;;7.30;2.47;;;13.20;99.90;;;;;;5048868;28;20133;-85
2022/07/27 00:31:01;;;;;;;9.27;2.65;;;13.10;99.90;;;;;;5030200;28;20048;-85
2022/07/27 00:33:28;;;;;;;7.70;2.60;;;13.20;99.90;;;;;;5083398;28;20053;-85
2022/07/27 00:35:54;;;;;;;6.13;2.50;;;13.20;99.90;;;;;;5049025;28;20048;-85
2022/07/27 00:38:20;;;;;;;5.80;2.10;;;13.20;99.90;;;;;;5060857;28;20082;-85
2022/07/27 00:40:46;;;;;;;7.28;2.03;;;13.20;99.90;;;;;;5030310;28;20051;-85
2022/07/27 00:43:14;;;;;;;8.48;2.17;;;13.20;99.90;;;;;;5064857;28;20039;-85
2022/07/27 00:45:40;;;;;;;4.10;1.83;;;13.20;99.90;;;;;;5030918;28;20032;-84
2022/07/27 00:48:06;;;;;;;5.72;2.00;;;13.30;99.90;;;;;;5026567;28;20079;-84
2022/07/27 00:50:33;;;;;;;5.45;2.20;;;13.20;99.90;;;;;;5046113;28;20144;-85
2022/07/27 00:52:59;;;;;;;5.22;1.88;;;13.20;99.90;;;;;;5073657;28;20050;-85
2022/07/27 00:55:26;;;;;;;6.72;2.53;;;13.00;99.90;;;;;;5052667;28;20487;-84
2022/07/27 00:57:52;;;;;;;7.00;2.53;;;12.90;99.90;;;;;;5093231;28;20036;-85
2022/07/27 01:00:20;;;;;;;5.15;2.30;;;12.90;99.90;;;;;;5084689;28;20463;-84
2022/07/27 01:02:46;;;;;;;5.78;2.25;;;12.90;99.90;;;;;;5048886;28;20047;-84
2022/07/27 01:05:13;;;;;;;5.72;2.53;;;12.90;99.90;;;;;;5069646;28;20475;-84
2022/07/27 01:07:39;;;;;;;8.45;2.30;;;12.90;99.90;;;;;;5065696;28;20050;-85
2022/07/27 01:10:06;;;;;;;5.40;2.13;;;12.90;99.90;;;;;;5101156;27;20057;-83
2022/07/27 01:12:32;;;;;;;5.20;2.40;;;12.90;99.90;;;;;;5051254;28;20744;-85
2022/07/27 01:14:59;;;;;;;7.25;2.63;;;12.90;99.90;;;;;;5082850;28;20047;-86
2022/07/27 01:17:29;;;;;;;6.88;2.55;;;12.90;99.90;;;;;;5051160;27;20051;-84
2022/07/27 01:19:57;;;;;;;4.78;2.50;;;12.90;99.90;;;;;;5087217;27;20043;-84
2022/07/27 01:22:23;;;;;;;9.48;3.17;;;12.80;99.90;;;;;;5095803;27;20046;-84
2022/07/27 01:24:49;;;;;;;4.90;2.38;;;12.90;99.90;;;;;;5095943;27;20050;-85
2022/07/27 01:27:15;;;;;;;5.40;2.42;;;12.90;99.90;;;;;;5070707;27;20042;-82
2022/07/27 01:29:42;;;;;;;4.78;2.53;;;12.80;99.90;;;;;;5084425;27;20076;-86
2022/07/27 01:32:08;;;;;;;5.07;2.78;;;12.90;99.90;;;;;;5123178;27;20038;-85
2022/07/27 01:34:34;;;;;;;8.20;2.67;;;12.90;99.90;;;;;;5060498;27;20046;-85
2022/07/27 01:37:02;;;;;;;7.43;2.42;;;12.90;99.90;;;;;;5057465;27;20052;-86
2022/07/27 01:39:29;;;;;;;5.43;2.53;;;13.00;99.90;;;;;;5106122;27;20050;-85
2022/07/27 01:41:55;;;;;;;5.70;2.60;;;13.00;99.90;;;;;;5071508;27;20509;-85
2022/07/27 01:44:21;;;;;;;8.70;3.33;;;12.90;99.90;;;;;;5074564;27;20039;-83
2022/07/27 01:46:48;;;;;;;7.47;3.00;;;13.00;99.90;;;;;;5087100;27;20077;-84
2022/07/27 01:49:14;;;;;;;4.28;2.45;;;12.90;99.90;;;;;;5089144;27;20095;-84
2022/07/27 01:51:41;;;;;;;11.27;2.92;;;12.90;99.90;;;;;;5105825;27;20035;-87
2022/07/27 01:54:08;;;;;;;4.88;3.13;;;12.80;99.90;;;;;;5081315;27;20633;-85
2022/07/27 01:56:34;;;;;;;4.60;2.95;;;12.80;99.90;;;;;;5071733;27;20054;-84
2022/07/27 01:59:00;;;;;;;5.00;2.78;;;12.80;99.90;;;;;;5084738;27;20046;-85
2022/07/27 02:01:26;;;;;;;5.95;2.67;;;12.80;99.90;;;;;;5077153;27;20490;-84
2022/07/27 02:03:52;;;;;;;8.07;2.65;;;12.80;99.90;;;;;;5085568;27;20045;-85
2022/07/27 02:06:19;;;;;;;5.88;2.75;;;12.70;99.90;;;;;;5039360;27;20051;-85
2022/07/27 02:08:45;;;;;;;10.00;2.92;;;12.70;99.90;;;;;;5039237;27;20042;-85
2022/07/27 02:13:57;;;;;;;5.05;3.00;;;12.50;99.90;;;;;;5084898;27;20054;-85
2022/07/27 02:16:23;;;;;;;5.88;3.00;;;12.50;99.90;;;;;;5066323;27;20078;-85
2022/07/27 02:18:49;;;;;;;6.35;3.28;;;12.50;99.90;;;;;;5050504;27;20153;-84
2022/07/27 02:21:15;;;;;;;7.70;3.15;;;12.40;99.90;;;;;;5074219;27;20340;-85
2022/07/27 02:23:43;;;;;;;5.70;3.13;;;12.30;99.90;;;;;;5085295;27;20038;-84
2022/07/27 02:26:10;;;;;;;6.82;3.60;;;12.30;99.90;;;;;;5071510;27;20045;-84
2022/07/27 02:28:36;;;;;;;6.38;3.28;;;12.20;99.90;;;;;;5062995;27;20047;-85
2022/07/27 02:31:03;;;;;;;6.13;3.20;;;12.20;99.90;;;;;;5071833;27;20050;-85
2022/07/27 02:33:29;;;;;;;5.63;2.72;;;12.10;99.90;;;;;;5066440;27;20035;-85
2022/07/27 02:35:55;;;;;;;6.65;3.00;;;12.10;99.90;;;;;;5101666;27;20054;-85
2022/07/27 02:38:21;;;;;;;6.03;3.30;;;12.00;99.90;;;;;;5062515;27;20108;-84
2022/07/27 02:40:48;;;;;;;8.25;3.75;;;12.00;99.90;;;;;;5073587;27;20039;-84
2022/07/27 02:43:15;;;;;;;6.38;3.50;;;11.90;99.90;;;;;;5063395;27;20070;-84
2022/07/27 02:45:41;;;;;;;5.97;3.33;;;11.80;99.90;;;;;;5072951;27;20039;-85
2022/07/27 02:48:07;;;;;;;5.07;3.50;;;11.80;99.90;;;;;;5064459;27;20039;-84
2022/07/27 02:50:33;;;;;;;6.78;3.80;;;11.80;99.90;;;;;;5083827;27;20103;-84
2022/07/27 02:52:59;;;;;;;7.68;3.38;;;11.70;99.90;;;;;;5081044;27;20059;-86
2022/07/27 02:55:25;;;;;;;5.20;3.22;;;11.70;99.90;;;;;;5069467;27;20565;-84
2022/07/27 02:57:52;;;;;;;9.77;4.78;;;11.70;99.90;;;;;;5068084;27;20447;-84
2022/07/27 03:00:18;;;;;;;7.05;3.00;;;11.60;99.90;;;;;;5105899;27;20065;-83
2022/07/27 03:02:48;;;;;;;7.10;2.90;;;11.60;99.90;;;;;;5054232;27;20042;-85
2022/07/27 03:05:16;;;;;;;6.93;3.63;;;11.60;99.90;;;;;;5072116;27;20077;-84
2022/07/27 03:07:43;;;;;;;7.45;3.63;;;11.60;99.90;;;;;;5084378;27;20047;-84
2022/07/27 03:10:09;;;;;;;6.72;3.60;;;11.50;99.90;;;;;;5077681;27;20039;-84
2022/07/27 03:12:35;;;;;;;5.68;3.13;;;11.40;99.90;;;;;;5032949;27;20066;-84
2022/07/27 03:15:01;;;;;;;5.05;3.03;;;11.40;99.90;;;;;;5103497;27;20075;-84
2022/07/27 03:17:27;;;;;;;5.65;3.30;;;11.40;99.90;;;;;;5072280;27;20043;-84
2022/07/27 03:19:54;;;;;;;4.22;3.03;;;11.30;99.90;;;;;;5071894;27;20123;-84
2022/07/27 03:22:20;;;;;;;9.20;3.58;;;11.30;99.90;;;;;;5121047;27;20042;-84
2022/07/27 03:24:46;;;;;;;7.22;3.28;;;11.30;99.90;;;;;;5048859;27;20038;-85
2022/07/27 03:27:12;;;;;;;5.07;3.20;;;11.20;99.90;;;;;;5102553;28;20593;-84
2022/07/27 03:29:38;;;;;;;6.20;3.20;;;11.20;99.90;;;;;;5064651;27;20047;-84
2022/07/27 03:32:05;;;;;;;4.10;2.83;;;11.20;99.90;;;;;;5057552;27;20144;-84
2022/07/27 03:34:31;;;;;;;7.28;2.85;;;11.20;99.90;;;;;;5069165;27;20046;-83
2022/07/27 03:36:57;;;;;;;7.00;3.80;;;11.20;99.90;;;;;;5067278;27;20038;-84
2022/07/27 03:39:24;;;;;;;5.43;3.40;;;11.20;99.90;;;;;;5067017;28;20150;-83
2022/07/27 03:41:50;;;;;;;5.95;3.42;;;11.10;99.90;;;;;;5075359;27;20053;-83
2022/07/27 03:44:16;;;;;;;5.50;3.47;;;11.20;99.90;;;;;;5055789;27;20279;-84
2022/07/27 03:46:42;;;;;;;7.65;3.42;;;11.20;99.90;;;;;;5047608;27;20043;-83
2022/07/27 03:49:09;;;;;;;6.18;3.40;;;11.20;99.90;;;;;;5052239;27;20045;-84
2022/07/27 03:51:35;;;;;;;4.75;2.72;;;11.10;99.90;;;;;;5055198;27;20589;-84
2022/07/27 03:54:02;;;;;;;7.25;3.20;;;11.20;99.90;;;;;;5072398;27;20077;-83
2022/07/27 03:56:31;;;;;;;7.15;3.47;;;11.20;99.90;;;;;;5032286;27;20757;-84
2022/07/27 03:58:58;;;;;;;4.68;3.42;;;11.20;99.90;;;;;;5066160;27;20121;-84
2022/07/27 04:01:24;;;;;;;4.35;2.72;;;11.30;99.90;;;;;;5087816;27;20074;-83
2022/07/27 04:03:50;;;;;;;6.57;3.10;;;11.30;99.90;;;;;;5070499;27;20078;-83
2022/07/27 04:06:16;;;;;;;4.78;2.78;;;11.30;99.90;;;;;;5088097;27;20046;-84
2022/07/27 04:08:42;;;;;;;5.85;3.45;;;11.20;99.90;;;;;;5090318;27;20038;-84
2022/07/27 04:11:09;;;;;;;4.68;2.97;;;11.20;99.90;;;;;;5117061;27;20054;-84
2022/07/27 04:13:35;;;;;;;6.88;3.22;;;11.20;99.90;;;;;;5102014;27;20038;-85
2022/07/27 04:16:01;;;;;;;5.60;3.35;;;11.20;99.90;;;;;;5053484;27;20046;-84
2022/07/27 04:18:27;;;;;;;7.25;3.95;;;11.20;99.90;;;;;;5085219;27;20050;-83
2022/07/27 04:20:53;;;;;;;5.88;3.15;;;11.20;99.90;;;;;;5081933;27;20066;-83
2022/07/27 04:23:19;;;;;;;6.95;3.78;;;11.30;99.90;;;;;;5052382;27;20062;-83
2022/07/27 04:25:46;;;;;;;8.15;4.13;;;11.40;99.90;;;;;;5101746;27;20157;-84
2022/07/27 04:28:12;;;;;;;8.02;4.15;;;11.50;99.90;;;;;;5069683;27;20463;-83
2022/07/27 04:30:38;;;;;;;8.30;3.90;;;11.50;99.90;;;;;;5064072;27;20149;-83
2022/07/27 04:33:04;;;;;;;8.07;3.65;;;11.60;99.90;;;;;;5067475;27;20074;-83
2022/07/27 04:35:30;;;;;;;6.53;4.07;;;11.60;99.90;;;;;;5062278;27;20042;-83
2022/07/27 04:37:56;;;;;;;7.10;4.05;;;11.80;99.90;;;;;;5077520;27;20137;-83
2022/07/27 04:40:22;;;;;;;6.63;3.75;;;11.80;99.90;;;;;;5056073;27;20042;-84
2022/07/27 04:42:48;;;;;;;8.27;4.03;;;11.90;99.90;;;;;;5075547;27;20039;-84
2022/07/27 04:45:15;;;;;;;6.35;3.58;;;12.00;99.90;;;;;;5062741;27;20050;-84
2022/07/27 04:47:41;;;;;;;10.73;3.60;;;12.10;99.90;;;;;;5091193;27;20043;-83
2022/07/27 04:50:07;;;;;;;7.80;4.03;;;12.20;99.90;;;;;;5085052;27;20505;-84
2022/07/27 04:52:34;;;;;;;8.13;3.88;;;12.30;99.90;;;;;;5081505;27;20119;-84
2022/07/27 04:55:00;;;;;;;6.47;3.50;;;12.40;99.90;;;;;;5058374;27;20127;-84
2022/07/27 04:57:26;;;;;;;7.55;4.07;;;12.50;99.90;;;;;;5073114;27;20046;-85
2022/07/27 04:59:52;;;;;;;6.07;3.10;;;12.60;99.90;;;;;;5055429;27;20047;-84
2022/07/27 05:02:18;;;;;;;9.07;3.55;;;12.60;99.90;;;;;;5094315;27;20097;-84
2022/07/27 05:04:45;;;;;;;6.28;3.65;;;12.70;99.90;;;;;;5073988;27;20050;-84
2022/07/27 05:07:11;;;;;;;7.22;3.53;;;12.70;99.90;;;;;;5057140;27;20362;-84
2022/07/27 05:09:37;;;;;;;6.15;3.58;;;12.80;99.90;;;;;;5070436;27;20050;-86
2022/07/27 05:12:03;;;;;;;6.45;3.58;;;12.80;99.90;;;;;;5107880;27;21116;-85
2022/07/27 05:14:30;;;;;;;6.78;3.47;;;12.90;99.90;;;;;;5069506;27;20047;-85
2022/07/27 05:16:56;;;;;;;7.18;3.10;;;12.90;99.90;;;;;;5073534;27;20615;-85
2022/07/27 05:19:22;;;;;;;6.78;3.60;;;12.90;99.90;;;;;;5065737;27;20057;-84
2022/07/27 05:21:49;;;;;;;6.57;3.53;;;13.00;99.90;;;;;;5097271;27;20039;-84
2022/07/27 05:24:15;;;;;;;7.53;3.00;;;13.10;99.90;;;;;;5060277;27;20435;-84
2022/07/27 05:26:41;;;;;;;8.02;3.55;;;13.10;99.90;;;;;;5055886;27;20042;-83
2022/07/27 05:29:07;;;;;;;8.30;3.35;;;13.20;99.90;;;;;;5057856;27;20046;-83
2022/07/27 05:31:38;;;;;;;6.63;3.50;;;13.20;99.90;;;;;;5053556;27;20046;-85
2022/07/27 05:34:04;;;;;;;8.45;3.80;;;13.30;99.90;;;;;;5074143;27;20038;-83
2022/07/27 05:36:31;;;;;;;7.70;3.10;;;13.30;99.90;;;;;;5067200;27;20046;-82
2022/07/27 05:38:57;;;;;;;5.57;3.13;;;13.40;99.90;;;;;;5057467;27;20047;-87
2022/07/27 05:41:25;;;;;;;9.80;2.97;;;13.50;99.90;;;;;;5091228;27;20057;-88
2022/07/27 05:43:53;;;;;;;9.65;3.85;;;13.60;99.90;;;;;;5087561;27;20095;-83
2022/07/27 05:46:19;;;;;;;11.73;7.47;;;13.70;99.90;;;;;;5064252;27;20526;-85
2022/07/27 05:48:46;;;;;;;5.38;3.03;;;13.80;99.90;;;;;;5074696;27;20085;-83
2022/07/27 05:51:12;;;;;;;8.10;2.88;;;13.90;99.90;;;;;;5072726;27;20149;-83
2022/07/27 05:53:39;;;;;;;15.65;8.98;;;14.00;99.90;;;;;;5090063;27;20075;-83
2022/07/27 05:56:06;;;;;;;6.78;3.08;;;14.10;99.90;;;;;;5082205;27;20060;-87
2022/07/27 05:58:33;;;;;;;7.72;2.72;;;14.10;99.90;;;;;;5089042;27;20118;-87
2022/07/27 06:00:59;;;;;;;7.45;2.92;;;14.20;99.90;;;;;;5068389;27;20107;-84
2022/07/27 06:03:26;;;;;;;14.23;4.25;;;14.30;99.90;;;;;;5055740;27;20038;-84
2022/07/27 06:07:57;;;;;;;6.97;2.85;;;14.40;99.90;;;;;;5056953;27;20091;-85
2022/07/27 06:08:38;;;;;;;21.73;4.95;;;14.50;99.90;;;;;;5056662;27;20078;-84
2022/07/27 06:11:05;;;;;;;10.52;6.03;;;14.60;99.90;;;;;;5073601;27;20074;-85
2022/07/27 06:13:34;;;;;;;11.48;4.93;;;14.70;99.90;;;;;;5087140;27;20448;-86
2022/07/27 06:16:01;;;;;;;11.35;7.43;;;14.80;99.90;;;;;;5048169;27;20043;-88
2022/07/27 06:18:27;;;;;;;7.63;2.53;;;14.80;99.90;;;;;;5091003;27;20069;-84
2022/07/27 06:20:53;;;;;;;9.65;4.35;;;14.90;99.90;;;;;;5069896;27;20046;-86
2022/07/27 06:23:19;;;;;;;8.30;2.90;;;14.90;99.90;;;;;;5056647;27;20212;-85
2022/07/27 06:25:45;;;;;;;8.55;2.85;;;15.00;99.90;;;;;;5084124;27;20047;-85
2022/07/27 06:28:12;;;;;;;8.60;2.92;;;15.00;99.90;;;;;;5038242;27;20038;-85
2022/07/27 06:30:38;;;;;;;7.32;3.00;;;14.90;99.90;;;;;;5086623;27;20089;-83
2022/07/27 06:33:04;;;;;;;7.75;3.47;;;15.00;99.90;;;;;;5086219;27;20474;-85
2022/07/27 06:35:30;;;;;;;8.57;2.88;;;15.00;99.90;;;;;;5078031;27;20051;-85
2022/07/27 06:37:56;;;;;;;78.38;70.82;;;15.10;99.90;;;;;;5068462;27;20047;-88
2022/07/27 06:40:22;;;;;;;14.98;10.70;;;15.20;99.90;;;;;;5102864;27;20045;-85
2022/07/27 06:42:48;;;;;;;10.52;4.40;;;15.30;99.90;;;;;;5039606;27;20077;-83
2022/07/27 06:45:15;;;;;;;18.80;11.60;;;15.40;99.90;;;;;;5088843;27;20051;-84
2022/07/27 06:47:42;;;;;;;7.20;3.25;;;15.40;99.90;;;;;;5102905;27;20584;-84
2022/07/27 06:50:11;;;;;;;8.85;4.43;;;15.60;99.90;;;;;;5091110;27;20051;-84
2022/07/27 06:52:37;;;;;;;9.18;4.35;;;15.70;99.90;;;;;;5071600;27;20498;-86
2022/07/27 06:55:04;;;;;;;8.15;2.45;;;15.80;99.90;;;;;;5070601;27;20888;-85
2022/07/27 06:57:30;;;;;;;8.98;4.57;;;15.90;99.90;;;;;;5105195;27;20046;-84
2022/07/27 06:59:56;;;;;;;9.98;2.95;;;16.00;99.90;;;;;;5103619;27;20403;-88
2022/07/27 07:02:23;;;;;;;10.95;2.78;;;16.20;99.90;;;;;;5071608;27;20108;-87
2022/07/27 07:04:49;;;;;;;11.13;3.03;;;16.20;99.90;;;;;;5093210;27;20055;-87
2022/07/27 07:07:15;;;;;;;7.38;2.47;;;16.20;99.90;;;;;;5095883;27;20094;-94
2022/07/27 07:09:41;;;;;;;26.40;23.15;;;16.30;99.90;;;;;;5075370;27;20055;-89
2022/07/27 07:12:07;;;;;;;12.82;10.80;;;16.40;99.90;;;;;;5044927;27;20042;-86
2022/07/27 07:14:34;;;;;;;5.63;2.05;;;16.50;99.90;;;;;;5084095;27;20676;-83
2022/07/27 07:17:00;;;;;;;12.93;3.45;;;16.70;99.90;;;;;;5065961;27;20042;-85
2022/07/27 07:19:27;;;;;;;8.77;5.60;;;16.90;99.90;;;;;;5037146;27;20545;-88
2022/07/27 07:21:53;;;;;;;21.60;16.85;;;17.20;99.90;;;;;;5070559;27;20118;-89
2022/07/27 07:24:19;;;;;;;4.68;2.25;;;17.30;99.90;;;;;;5076010;27;20046;-95
2022/07/27 07:26:46;;;;;;;7.45;2.92;;;17.30;99.90;;;;;;5091624;27;20045;-93
2022/07/27 07:29:22;;;;;;;6.63;3.60;;;17.40;99.90;;;;;;5085339;27;20042;-94
2022/07/27 07:31:48;;;;;;;59.15;47.25;;;17.30;99.90;;;;;;5105414;27;20046;-93
2022/07/27 07:34:15;;;;;;;7.05;2.92;;;17.40;99.90;;;;;;5101540;27;20125;-88
2022/07/27 07:36:41;;;;;;;7.10;2.95;;;17.50;99.90;;;;;;5083016;27;20042;-92
2022/07/27 07:39:08;;;;;;;15.00;12.05;;;17.60;99.90;;;;;;5073652;27;20417;-94
2022/07/27 07:41:38;;;;;;;16.67;13.07;;;17.80;99.90;;;;;;5064224;27;20060;-92
2022/07/27 07:44:05;;;;;;;12.05;6.68;;;18.00;99.90;;;;;;5079017;27;20567;-94
2022/07/27 07:46:33;;;;;;;12.43;8.35;;;18.20;99.90;;;;;;5097603;27;20818;-95
2022/07/27 07:48:59;;;;;;;8.55;2.58;;;18.30;99.90;;;;;;5077891;27;20827;-95
2022/07/27 07:51:25;;;;;;;4.78;1.15;;;18.40;99.90;;;;;;5079182;27;20050;-94
2022/07/27 07:53:52;;;;;;;9.35;6.07;;;18.50;99.90;;;;;;5093944;27;20068;-94
2022/07/27 07:56:18;;;;;;;8.18;2.55;;;18.60;99.90;;;;;;5089310;27;20099;-90
2022/07/27 07:58:45;;;;;;;5.35;1.40;;;19.00;99.90;;;;;;5093941;27;20047;-90
2022/07/27 08:01:11;;;;;;;7.68;1.73;;;19.00;99.90;;;;;;5064819;27;20751;-88
2022/07/27 08:03:37;;;;;;;6.65;1.55;;;19.20;99.90;;;;;;5058385;27;20039;-91
2022/07/27 08:06:05;;;;;;;3.97;1.70;;;19.30;99.90;;;;;;5048311;27;20136;-89
2022/07/27 08:08:42;;;;;;;7.50;3.35;;;19.70;99.90;;;;;;5116743;27;20049;-93
2022/07/27 08:11:09;;;;;;;6.20;3.10;;;19.60;99.90;;;;;;5066248;27;20134;-96
2022/07/27 08:13:35;;;;;;;4.80;1.90;;;19.80;99.90;;;;;;5058107;27;20039;-92
2022/07/27 08:16:02;;;;;;;7.60;1.45;;;19.90;99.90;;;;;;5089565;27;20047;-93
2022/07/27 08:18:28;;;;;;;5.43;2.35;;;20.10;99.90;;;;;;5078798;27;20103;-92
2022/07/27 08:20:57;;;;;;;7.30;2.65;;;20.70;99.90;;;;;;5080746;27;20094;-90
2022/07/27 08:23:25;;;;;;;8.02;5.13;;;21.10;99.90;;;;;;5061019;27;20554;-92
2022/07/27 08:25:52;;;;;;;10.48;2.42;;;21.70;99.90;;;;;;5072477;27;20050;-90
2022/07/27 08:28:18;;;;;;;6.85;2.70;;;21.90;99.90;;;;;;5101077;27;20039;-91
2022/07/27 08:30:45;;;;;;;7.72;1.23;;;22.00;99.90;;;;;;5054775;27;20047;-90
2022/07/27 08:33:11;;;;;;;6.32;3.08;;;22.20;99.90;;;;;;5087390;27;20571;-92
2022/07/27 08:35:38;;;;;;;6.50;2.95;;;22.60;99.90;;;;;;5094384;27;20035;-91
2022/07/27 08:38:08;;;;;;;4.05;1.17;;;22.80;99.90;;;;;;5101850;27;20042;-85
2022/07/27 08:40:35;;;;;;;4.75;1.40;;;22.80;99.90;;;;;;5105963;27;20035;-87
2022/07/27 08:43:02;;;;;;;4.28;1.02;;;23.20;99.90;;;;;;5104475;27;20085;-87
2022/07/27 08:45:29;;;;;;;11.65;1.90;;;23.30;99.90;;;;;;5092145;27;20038;-87
2022/07/27 08:47:56;;;;;;;9.15;3.53;;;23.50;99.90;;;;;;5070666;27;20043;-85
2022/07/27 08:50:23;;;;;;;4.13;1.00;;;22.70;97.50;;;;;;5092538;27;20058;-88
2022/07/27 08:52:53;;;;;;;5.22;1.30;;;22.30;99.90;;;;;;5085288;27;20027;-88
2022/07/27 08:55:21;;;;;;;6.53;1.33;;;22.80;99.90;;;;;;5123213;27;20039;-87
2022/07/27 08:57:47;;;;;;;3.75;1.10;;;22.80;99.90;;;;;;5096642;27;20303;-89
2022/07/27 09:00:15;;;;;;;4.00;1.00;;;23.10;99.90;;;;;;5058279;27;20043;-88
2022/07/27 09:02:43;;;;;;;5.43;1.40;;;23.80;99.70;;;;;;5090517;27;20384;-88
2022/07/27 09:05:10;;;;;;;5.18;0.85;;;23.50;99.30;;;;;;5076503;27;20118;-88
2022/07/27 09:07:37;;;;;;;6.32;1.52;;;23.40;97.40;;;;;;5093366;27;20175;-87
2022/07/27 09:10:04;;;;;;;4.65;1.10;;;23.00;96.60;;;;;;5094440;27;20447;-88
2022/07/27 09:12:32;;;;;;;11.30;5.97;;;22.70;97.70;;;;;;5067191;27;20127;-90
2022/07/27 09:15:07;;;;;;;11.35;9.90;;;22.10;99.90;;;;;;5130544;27;20046;-88
2022/07/27 09:17:33;;;;;;;9.85;7.28;;;21.60;99.90;;;;;;5096032;27;20058;-90
2022/07/27 09:20:03;;;;;;;11.40;6.10;;;21.10;99.90;;;;;;5091146;27;20050;-84
2022/07/27 09:22:53;;;;;;;10.98;4.78;;;20.70;99.90;;;;;;5112174;27;20046;-88
2022/07/27 09:25:24;;;;;;;12.25;10.73;;;20.30;99.90;;;;;;5109134;27;20134;-89
2022/07/27 09:27:56;;;;;;;5.93;3.72;;;20.10;99.90;;;;;;5101170;27;20046;-88
2022/07/27 09:30:24;;;;;;;8.57;4.40;;;19.80;99.90;;;;;;5094739;27;20031;-87
2022/07/27 09:33:02;;;;;;;7.53;1.45;;;20.00;99.90;;;;;;5102184;27;20493;-87
2022/07/27 09:35:30;;;;;;;5.80;1.90;;;19.80;99.90;;;;;;5066618;27;20035;-83
2022/07/27 09:38:19;;;;;;;5.53;1.30;;;19.90;99.90;;;;;;5083109;27;20050;-83
2022/07/27 09:40:48;;;;;;;4.07;1.23;;;20.00;99.90;;;;;;5122718;27;20054;-83
2022/07/27 09:43:18;;;;;;;7.70;4.32;;;20.10;99.90;;;;;;5088886;27;20043;-84
2022/07/27 09:45:47;;;;;;;5.40;1.35;;;20.20;99.90;;;;;;5127943;27;20073;-83
2022/07/27 09:48:16;;;;;;;5.50;1.40;;;20.30;99.90;;;;;;5089731;27;20031;-83
2022/07/27 09:50:59;;;;;;;5.82;1.38;;;20.40;99.90;;;;;;5114075;27;20063;-83
2022/07/27 09:53:28;;;;;;;8.57;1.95;;;20.60;99.90;;;;;;5102256;27;20039;-85
2022/07/27 09:56:00;;;;;;;9.95;1.48;;;20.70;99.90;;;;;;5138370;27;20049;-83
2022/07/27 09:58:45;;;;;;;6.05;2.92;;;20.70;99.90;;;;;;5110253;27;20042;-83
2022/07/27 10:01:20;;;;;;;5.85;3.50;;;20.70;99.90;;;;;;5113820;27;20266;-83
2022/07/27 10:03:49;;;;;;;3.75;1.23;;;21.00;99.90;;;;;;5113267;27;20296;-82
2022/07/27 10:06:16;;;;;;;7.47;0.98;;;21.30;99.90;;;;;;5104250;27;20034;-84
2022/07/27 10:08:45;;;;;;;3.20;0.85;;;21.30;99.90;;;;;;5084748;27;20037;-84
2022/07/27 10:11:13;;;;;;;4.85;0.93;;;21.70;99.90;;;;;;5104174;27;20022;-83
2022/07/27 10:13:40;;;;;;;3.40;0.90;;;21.50;99.90;;;;;;5112683;27;20047;-84
2022/07/27 10:16:19;;;;;;;11.27;2.90;;;21.60;99.90;;;;;;5127906;27;20030;-85
2022/07/27 10:18:55;;;;;;;4.45;1.10;;;22.40;99.90;;;;;;5106982;27;20035;-84
2022/07/27 10:21:23;;;;;;;8.88;3.83;;;22.60;98.60;;;;;;5094687;27;20054;-84
2022/07/27 10:23:55;;;;;;;7.90;1.30;;;22.80;97.80;;;;;;5100582;27;20081;-83
2022/07/27 10:26:30;;;;;;;4.70;0.93;;;22.80;95.70;;;;;;5112909;27;20078;-84
2022/07/27 10:29:04;;;;;;;1.70;0.70;;;22.50;94.40;;;;;;5124649;27;20070;-84
2022/07/27 10:31:36;;;;;;;3.72;1.13;;;22.50;93.80;;;;;;5106661;27;20054;-84
2022/07/27 10:34:08;;;;;;;4.90;2.03;;;22.60;95.10;;;;;;5078921;27;20042;-85
2022/07/27 10:36:34;;;;;;;4.03;1.08;;;22.80;94.00;;;;;;5068547;27;20043;-85
2022/07/27 10:39:04;;;;;;;3.70;1.30;;;23.30;94.40;;;;;;5073467;27;20039;-85
2022/07/27 10:41:33;;;;;;;4.90;0.95;;;23.60;92.40;;;;;;5069048;27;20116;-83
2022/07/27 10:44:19;;;;;;;2.50;0.75;;;23.70;90.40;;;;;;5081910;28;20468;-84
2022/07/27 10:46:57;;;;;;;3.13;0.85;;;24.30;90.20;;;;;;5076530;27;20513;-84
2022/07/27 10:49:27;;;;;;;5.72;1.05;;;24.60;84.20;;;;;;5103093;27;20050;-84
2022/07/27 10:51:55;;;;;;;6.82;2.38;;;24.10;84.40;;;;;;5088339;27;20039;-86
2022/07/27 10:54:25;;;;;;;2.85;0.82;;;24.00;84.00;;;;;;5074001;27;20054;-84
2022/07/27 10:56:55;;;;;;;2.53;0.82;;;23.50;82.60;;;;;;5069342;27;20490;-83
2022/07/27 10:59:41;;;;;;;5.20;2.13;;;23.20;82.50;;;;;;5089230;27;20047;-84
2022/07/27 11:02:08;;;;;;;5.18;1.05;;;23.00;83.30;;;;;;5081160;27;20154;-84
2022/07/27 11:04:51;;;;;;;6.35;1.10;;;22.40;86.60;;;;;;5108205;27;20398;-84
2022/07/27 11:07:20;;;;;;;3.67;1.13;;;22.60;86.30;;;;;;5074033;27;20047;-84
2022/07/27 11:09:50;;;;;;;3.80;0.95;;;22.40;87.10;;;;;;5095828;27;20051;-84
2022/07/27 11:12:16;;;;;;;4.30;0.80;;;22.50;87.60;;;;;;5072339;27;20094;-84
2022/07/27 11:14:50;;;;;;;3.58;0.93;;;22.70;86.50;;;;;;5059698;27;20047;-83
2022/07/27 11:17:20;;;;;;;3.60;1.20;;;23.10;82.20;;;;;;5094614;27;20234;-84
2022/07/27 11:19:57;;;;;;;6.43;1.05;;;23.10;82.70;;;;;;5065955;28;20431;-84
2022/07/27 11:22:38;;;;;;;4.60;1.23;;;23.40;79.40;;;;;;5082864;28;20122;-84
2022/07/27 11:25:06;;;;;;;4.78;1.70;;;24.40;81.20;;;;;;5080455;28;20547;-84
2022/07/27 11:27:48;;;;;;;5.45;1.10;;;24.80;77.90;;;;;;5068493;28;20048;-85
2022/07/27 11:30:22;;;;;;;4.18;1.13;;;25.00;71.60;;;;;;5102424;28;20044;-85
2022/07/27 11:32:48;;;;;;;4.30;0.95;;;24.50;67.60;;;;;;5070627;28;20043;-85
2022/07/27 11:35:16;;;;;;;4.57;1.60;;;24.20;71.20;;;;;;5056370;28;20101;-85
2022/07/27 11:38:05;;;;;;;4.72;1.00;;;24.10;70.90;;;;;;5069000;28;20078;-84
2022/07/27 11:40:42;;;;;;;4.07;1.05;;;23.60;69.20;;;;;;5073640;28;20476;-84
2022/07/27 11:43:08;;;;;;;6.07;1.00;;;23.50;72.20;;;;;;5062171;28;20047;-84
2022/07/27 11:45:38;;;;;;;5.25;1.02;;;23.20;73.30;;;;;;5013602;28;20043;-84
2022/07/27 11:48:11;;;;;;;4.65;0.98;;;23.20;74.50;;;;;;5049834;28;20073;-85
2022/07/27 11:50:56;;;;;;;4.60;0.93;;;22.80;72.50;;;;;;5052601;28;20044;-84
2022/07/27 11:53:22;;;;;;;4.35;1.10;;;22.80;75.00;;;;;;5065530;28;20088;-84
2022/07/27 11:55:49;;;;;;;3.42;0.73;;;22.80;74.60;;;;;;5079164;28;20856;-82
2022/07/27 11:58:17;;;;;;;2.80;0.80;;;22.70;74.20;;;;;;5047670;28;20051;-85
2022/07/27 12:00:46;;;;;;;4.47;2.42;;;23.00;73.90;;;;;;5071215;28;20066;-84
2022/07/27 12:03:24;;;;;;;3.70;1.17;;;22.90;73.20;;;;;;5068064;28;20174;-83
2022/07/27 12:05:55;;;;;;;6.13;1.33;;;23.10;73.40;;;;;;5032702;28;20063;-83
2022/07/27 12:08:23;;;;;;;3.47;1.10;;;24.60;74.40;;;;;;5049747;28;20116;-84
2022/07/27 12:10:59;;;;;;;4.30;1.67;;;25.50;72.30;;;;;;5053516;28;20066;-91
2022/07/27 12:13:33;;;;;;;10.60;4.60;;;25.90;65.40;;;;;;5051222;28;20055;-84
2022/07/27 12:15:59;;;;;;;6.45;2.25;;;25.50;64.70;;;;;;5028906;28;20122;-85
2022/07/27 12:18:26;;;;;;;40.58;36.67;;;25.20;63.60;;;;;;5077580;28;20087;-91
2022/07/27 12:20:52;;;;;;;10.98;9.80;;;24.60;63.30;;;;;;5091811;28;20092;-87
2022/07/27 12:23:27;;;;;;;5.15;2.22;;;24.30;63.30;;;;;;5069511;27;20579;-86
2022/07/27 12:25:55;;;;;;;17.75;15.90;;;23.90;61.80;;;;;;5083146;27;20031;-89
2022/07/27 12:28:24;;;;;;;55.53;50.53;;;23.80;61.80;;;;;;5083453;27;20048;-84
2022/07/27 12:30:51;;;;;;;5.60;4.05;;;23.90;63.70;;;;;;5111119;27;20320;-87
2022/07/27 12:33:30;;;;;;;9.30;8.38;;;23.80;63.20;;;;;;5098426;27;20114;-88
2022/07/27 12:35:58;;;;;;;22.60;20.35;;;23.80;62.50;;;;;;5108465;27;20055;-88
2022/07/27 12:38:47;;;;;;;7.20;1.30;;;23.70;63.20;;;;;;5124288;27;20058;-90
2022/07/27 12:41:31;;;;;;;5.45;3.05;;;24.60;62.70;;;;;;5095021;27;20128;-91
2022/07/27 12:44:16;;;;;;;2.85;0.70;;;25.60;62.40;;;;;;5068921;28;20111;-84
2022/07/27 12:49:41;;;;;;;9.40;4.35;;;25.30;58.50;;;;;;5091483;27;20050;-91
2022/07/27 12:52:09;;;;;;;23.35;21.10;;;24.70;59.90;;;;;;5034229;27;20156;-90
2022/07/27 12:54:36;;;;;;;15.05;13.55;;;24.40;60.10;;;;;;5072501;27;20067;-88
2022/07/27 12:57:03;;;;;;;4.63;0.93;;;23.90;60.30;;;;;;5072918;27;20071;-84